Eski?ehir Air Base


Codes: LTBI/ESK
Name: Eski?ehir Air Base
City:
Country: Turkey
Elevation: 2581 ft.
Wikipedia:

Photos at Eski?ehir Air Base


   Photos courtesy of SpottingLog. You can add your own sightings and photos by signing up for a free trial today.



No photos found.

Weather at Eski?ehir Air Base


Time (UTC)DescriptionTempratureWindCloud coverageVisibilityPressureHumidity
19-Apr-2024 03:00Few Clouds8°C2 mph, SW20%10000m1011hPa93%
19-Apr-2024 06:00Few Clouds10°C2 mph, SW15%10000m1011hPa82%
19-Apr-2024 09:00Few Clouds15°C9 mph, SW18%10000m1010hPa48%
19-Apr-2024 12:00Scattered Clouds22°C11 mph, SW31%10000m1007hPa22%
19-Apr-2024 15:00Overcast Clouds18°C11 mph, NW92%10000m1006hPa45%
19-Apr-2024 18:00Overcast Clouds12°C7 mph, NW87%10000m1008hPa79%
19-Apr-2024 21:00Broken Clouds10°C0 mph, NE57%10000m1008hPa86%
20-Apr-2024 00:00Scattered Clouds10°C7 mph, E32%10000m1005hPa74%
20-Apr-2024 03:00Scattered Clouds11°C13 mph, SE43%10000m1002hPa57%
20-Apr-2024 06:00Scattered Clouds18°C18 mph, SE28%10000m1000hPa47%
20-Apr-2024 09:00Light Rain8°C34 mph, W100%8305m1006hPa79%
20-Apr-2024 12:00Overcast Clouds16°C13 mph, SW100%10000m1003hPa37%
20-Apr-2024 15:00Light Rain15°C16 mph, SW97%10000m1003hPa50%
20-Apr-2024 18:00Light Rain9°C11 mph, W98%10000m1007hPa81%
20-Apr-2024 21:00Light Rain8°C9 mph, W86%10000m1011hPa84%
21-Apr-2024 00:00Light Rain8°C7 mph, W94%10000m1012hPa77%
21-Apr-2024 03:00Scattered Clouds6°C4 mph, W42%10000m1013hPa88%
21-Apr-2024 06:00Few Clouds10°C2 mph, S24%10000m1014hPa68%
21-Apr-2024 09:00Clear Sky16°C4 mph, SW6%10000m1012hPa38%
21-Apr-2024 12:00Clear Sky20°C11 mph, SW4%10000m1011hPa23%
21-Apr-2024 15:00Broken Clouds19°C16 mph, W63%10000m1011hPa28%
21-Apr-2024 18:00Broken Clouds13°C7 mph, SW62%10000m1013hPa43%
21-Apr-2024 21:00Scattered Clouds11°C2 mph, S30%10000m1014hPa50%
22-Apr-2024 00:00Few Clouds10°C2 mph, E15%10000m1016hPa54%
22-Apr-2024 03:00Clear Sky8°C2 mph, SW1%10000m1017hPa55%
22-Apr-2024 06:00Clear Sky14°C2 mph, SW5%10000m1017hPa36%
22-Apr-2024 09:00Overcast Clouds20°C9 mph, SW100%10000m1017hPa21%
22-Apr-2024 12:00Overcast Clouds22°C9 mph, W100%10000m1016hPa21%
22-Apr-2024 15:00Overcast Clouds21°C11 mph, W100%10000m1016hPa27%
22-Apr-2024 18:00Overcast Clouds15°C4 mph, W100%10000m1019hPa39%
22-Apr-2024 21:00Scattered Clouds13°C2 mph, SW26%10000m1020hPa50%
23-Apr-2024 00:00Broken Clouds13°C0 mph, N55%10000m1019hPa53%
23-Apr-2024 03:00Broken Clouds13°C4 mph, E75%10000m1018hPa53%
23-Apr-2024 06:00Broken Clouds19°C11 mph, E53%10000m1017hPa42%
23-Apr-2024 09:00Overcast Clouds24°C16 mph, SE100%10000m1015hPa33%
23-Apr-2024 12:00Overcast Clouds27°C11 mph, SW100%10000m1012hPa21%
23-Apr-2024 15:00Overcast Clouds27°C11 mph, S100%10000m1010hPa24%
23-Apr-2024 18:00Overcast Clouds21°C11 mph, SE100%10000m1010hPa36%
23-Apr-2024 21:00Overcast Clouds20°C11 mph, SE100%10000m1009hPa35%
24-Apr-2024 00:00Overcast Clouds18°C11 mph, SE100%10000m1008hPa38%